Whale Watcher — WCY9576 — position and weather

sailwx.info

Track history (hours):
 
Tides and Currents Weather Stations Pressure Air Temp Water Temp Dewpoint Dewpoint Depression Visibility Wind Speed Wind Dir Waves Ship Positions

Whale Watcher

Owner: J & J FISHING CORPORATION, BARNSTABLE, MA. More information available from US FCC via Universal Licensing System and Coast Guard Vessel Documentation Center.

Last reported at 2018-Jun-21 18:24 UTC. Time now 2018-Jun-22 09:28 UTC.
Position N 42°05' W 070°15'.

Length 40 m; draft 1.5 m.

Type: Passenger vessel. MMSI: 367397270.

Date/timePositionNaut miles runAvg speedWind from/ knotsBaromVisibWave heightAir tempDewpointWater temp
2018-Jun-21 18:24N 42°05' W 070°15'1025.8
2018-Jun-21 18:01N 42°11' W 070°04'4 8.5
2018-Jun-21 17:30N 42°14' W 070°08'713.4
2018-Jun-21 17:00N 42°14' W 070°17'2 3.1
2018-Jun-21 16:29N 42°13' W 070°18'1 0.0
2018-Jun-20 16:26N 42°12' W 070°19'2 3.5
2018-Jun-20 15:59N 42°13' W 070°18'4 0.2
2018-Jun-19 19:40N 42°09' W 070°19'6 0.1
2018-Jun-17 19:27N 42°04' W 070°15'817.5
2018-Jun-17 19:00N 42°12' W 070°14'2 4.4
2018-Jun-17 18:30N 42°10' W 070°16'1 2.8
2018-Jun-17 18:01N 42°09' W 070°18'4 8.2
2018-Jun-17 17:31N 42°11' W 070°22'917.7
2018-Jun-17 17:01N 42°03' W 070°21'  
2018-Jun-13 17:33N 42°09' W 070°22'1 9.8
2018-Jun-13 17:25N 42°09' W 070°21'4 0.2
2018-Jun-12 16:57N 42°08' W 070°16'  
Track history (hours):
 
Tides and Currents Weather Stations Pressure Air Temp Water Temp Dewpoint Dewpoint Depression Visibility Wind Speed Wind Dir Waves Ship Positions

Whale Watcher

Owner: J & J FISHING CORPORATION, BARNSTABLE, MA. More information available from US FCC via Universal Licensing System and Coast Guard Vessel Documentation Center.

Last reported at 2018-Jun-21 18:24 UTC. Time now 2018-Jun-22 09:28 UTC.
Position N 42°05' W 070°15'.

Length 40 m; draft 1.5 m.

Type: Passenger vessel. MMSI: 367397270.

Date/timePositionNaut miles runAvg speedWind from/ knotsBaromVisibWave heightAir tempDewpointWater temp
2018-Jun-21 18:24N 42°05' W 070°15'1025.8
2018-Jun-21 18:01N 42°11' W 070°04'4 8.5
2018-Jun-21 17:30N 42°14' W 070°08'713.4
2018-Jun-21 17:00N 42°14' W 070°17'2 3.1
2018-Jun-21 16:29N 42°13' W 070°18'1 0.0
2018-Jun-20 16:26N 42°12' W 070°19'2 3.5
2018-Jun-20 15:59N 42°13' W 070°18'4 0.2
2018-Jun-19 19:40N 42°09' W 070°19'6 0.1
2018-Jun-17 19:27N 42°04' W 070°15'817.5
2018-Jun-17 19:00N 42°12' W 070°14'2 4.4
2018-Jun-17 18:30N 42°10' W 070°16'1 2.8
2018-Jun-17 18:01N 42°09' W 070°18'4 8.2
2018-Jun-17 17:31N 42°11' W 070°22'917.7
2018-Jun-17 17:01N 42°03' W 070°21'  
2018-Jun-13 17:33N 42°09' W 070°22'1 9.8
2018-Jun-13 17:25N 42°09' W 070°21'4 0.2
2018-Jun-12 16:57N 42°08' W 070°16'  

Dump ship's entire track history